West Richmondville, New York
Current Conditions -  °F | °C
As of 7:15 AM on Monday 20 Oct 2014 (Local Time) from KNY0 Reporting Station
Overcast Overcast  
Wind Chill: 31°   Ceiling: 12000
Heat Index: 31°   Visibility: 10mi
Dew Point: 29°   Wind: 3mph
Humidity: 90%   Direction: 190°S
Pressure: 30.01"   Gusts: NA
Location:  42.6466°N, 74.5743°W
Report Text: KNY0 201115Z AUTO 19003KT 10SM SCT100 OVC120 00/M02 A3001 RMK AO2 T10031018
Loading
Personal Weather Stations






























Interactive Weather Map
Tropical Storm Tracking
New forecast layout! Learn more

10-Day Weather Forecast

Advertisements
Track Severe Weather on mobile